Aérodrome :
LOGIN :

S'inscrire | Disclaimer

   EN    FR    IT 

 










Légende :    VFR   VFR Marginal   IFR   IFR Intensif   IFR Très Intensif
Visi : 
Plafond : 
>= 8 km
>= 3000ft
5 à 8 km
1000 à 3000 ft
1500m à 5 km
500 à 1000 ft
800 à 1500m
200 à 500 ft
< 800m
< 200 ft
Symboles :   Orages  Brouillard  Fortes neiges  Fortes précipitations  Vent > 20 kt
SIGMETs :   Divers  Orages  Givrage  Turbulence  Onde Orograph.  Cendres Volcan.






- Altitude de l'aérodrome : 194 ft
- Code IATA : IEG


EPZG - Zielona Gora Babimost

DERNIER METAR :
  • 270700Z 09004KT 050V120 5000 BR NSC 15/14 Q1019

METARs EXPIRÉS :
  • 270630Z 04003KT 4000 BR NSC 14/13 Q1019
  • 270600Z 02003KT 4200 BR NSC 13/13 Q1019
  • 270530Z 04003KT 3000 MIFG BR NSC 12/12 Q1019
  • 270500Z 04004KT 3600 MIFG BR NSC 12/12 Q1018
  • 270430Z 04004KT 4400 BR NSC 13/13 Q1018

TAF TAF EPZG
Valide du 27 à 06h jusqu'au 27 à 15h UTC


270530Z 2706/2715 09008KT 3500 BR NSC
BECMG 2706/2708 CAVOK



MET'MAP, la Météo Aéronautique d'un coup d'oeil ! - Copyright ORBIFLY Décembre 2007 - Disclaimer

ORBIFLY MET'MAP TEAM :

Programmation & Développement : Alexandra Zaïnal
Sur une idée originale de : Baudouin d'Aumeries
Assistance à la programmation : Marc-Olivier Méhu
Soutien technique & logistique : Manuel Goepfert

Contact : metmap@orbifly.com




SOURCES & CREDITS :

   NOAA